Time,TemperatureF,DewpointF,PressureIn,WindDirection,WindDirectionDegrees,WindSpeedMPH,WindSpeedGustMPH,Humidity,HourlyPrecipIn,Conditions,Clouds,dailyrainin,SoftwareType,DateUTC
2013-05-24 00:14:00,54.9,53.0,30.16,ENE,76,1.0,2.0,92,0.00,,,0.00,weatherlink.com 1.10,2013-05-24 05:14:00,
2013-05-24 00:29:00,54.8,53.0,30.17,East,79,1.0,2.0,92,0.00,,,0.00,weatherlink.com 1.10,2013-05-24 05:29:00,
2013-05-24 00:44:00,54.3,52.0,30.17,ENE,74,2.0,2.0,93,0.00,,,0.00,weatherlink.com 1.10,2013-05-24 05:44:00,
2013-05-24 00:59:00,54.3,52.0,30.17,East,81,1.0,1.0,93,0.00,,,0.00,weatherlink.com 1.10,2013-05-24 05:59:00,
2013-05-24 01:14:00,53.8,52.0,30.18,East,79,1.0,1.0,93,0.00,,,0.00,weatherlink.com 1.10,2013-05-24 06:14:00,
2013-05-24 01:29:00,53.6,52.0,30.18,East,98,1.0,1.0,94,0.00,,,0.00,weatherlink.com 1.10,2013-05-24 06:29:00,
2013-05-24 01:44:00,53.6,52.0,30.19,East,99,1.0,1.0,94,0.00,,,0.00,weatherlink.com 1.10,2013-05-24 06:44:00,
2013-05-24 01:59:00,53.4,52.0,30.19,East,79,1.0,1.0,94,0.00,,,0.00,weatherlink.com 1.10,2013-05-24 06:59:00,
2013-05-24 02:14:00,53.1,52.0,30.20,East,87,1.0,1.0,95,0.00,,,0.00,weatherlink.com 1.10,2013-05-24 07:14:00,
2013-05-24 02:29:00,52.6,51.0,30.20,East,87,2.0,3.0,94,0.00,,,0.00,weatherlink.com 1.10,2013-05-24 07:29:00,
2013-05-24 02:44:00,52.4,51.0,30.20,ESE,102,2.0,3.0,95,0.00,,,0.00,weatherlink.com 1.10,2013-05-24 07:44:00,
2013-05-24 02:59:00,52.3,51.0,30.20,East,80,2.0,3.0,95,0.00,,,0.00,weatherlink.com 1.10,2013-05-24 07:59:00,
2013-05-24 03:15:00,52.4,51.0,30.19,ENE,61,4.0,6.0,95,0.00,,,0.00,weatherlink.com 1.10,2013-05-24 08:15:00,
2013-05-24 03:30:00,52.3,51.0,30.20,ENE,75,4.0,4.0,95,0.00,,,0.00,weatherlink.com 1.10,2013-05-24 08:30:00,
2013-05-24 03:45:00,52.1,51.0,30.21,ENE,78,2.0,4.0,95,0.00,,,0.00,weatherlink.com 1.10,2013-05-24 08:45:00,
2013-05-24 04:00:00,51.8,51.0,30.21,ESE,103,2.0,4.0,95,0.00,,,0.00,weatherlink.com 1.10,2013-05-24 09:00:00,
2013-05-24 04:15:00,51.7,50.0,30.22,ESE,110,6.0,6.0,94,0.00,,,0.00,weatherlink.com 1.10,2013-05-24 09:15:00,
2013-05-24 04:30:00,51.8,50.0,30.21,ENE,71,5.0,7.0,94,0.00,,,0.00,weatherlink.com 1.10,2013-05-24 09:30:00,
2013-05-24 04:45:00,51.9,50.0,30.22,ENE,75,4.0,6.0,94,0.00,,,0.00,weatherlink.com 1.10,2013-05-24 09:45:00,
2013-05-24 05:00:00,51.4,50.0,30.23,East,99,3.0,4.0,94,0.00,,,0.00,weatherlink.com 1.10,2013-05-24 10:00:00,
2013-05-24 05:15:00,51.0,49.0,30.23,ENE,65,4.0,4.0,94,0.00,,,0.00,weatherlink.com 1.10,2013-05-24 10:15:00,
2013-05-24 05:30:00,50.8,49.0,30.23,ESE,102,2.0,3.0,94,0.00,,,0.00,weatherlink.com 1.10,2013-05-24 10:30:00,
2013-05-24 05:45:00,50.4,49.0,30.24,East,99,1.0,2.0,95,0.00,,,0.00,weatherlink.com 1.10,2013-05-24 10:45:00,
2013-05-24 06:00:00,50.2,49.0,30.25,ENE,73,3.0,3.0,95,0.00,,,0.00,weatherlink.com 1.10,2013-05-24 11:00:00,
2013-05-24 06:15:00,50.0,49.0,30.25,East,86,1.0,2.0,95,0.00,,,0.00,weatherlink.com 1.10,2013-05-24 11:15:00,
2013-05-24 06:30:00,50.1,49.0,30.25,East,83,2.0,3.0,95,0.00,,,0.00,weatherlink.com 1.10,2013-05-24 11:30:00,
2013-05-24 06:45:00,50.8,50.0,30.26,East,100,2.0,3.0,95,0.00,,,0.00,weatherlink.com 1.10,2013-05-24 11:45:00,
2013-05-24 07:00:00,51.7,50.0,30.26,ESE,108,3.0,4.0,94,0.00,,,0.00,weatherlink.com 1.10,2013-05-24 12:00:00,
2013-05-24 07:15:00,52.5,50.0,30.27,East,96,4.0,5.0,92,0.00,,,0.00,weatherlink.com 1.10,2013-05-24 12:15:00,
2013-05-24 07:30:00,54.0,51.0,30.28,ENE,64,3.0,5.0,88,0.00,,,0.00,weatherlink.com 1.10,2013-05-24 12:30:00,
2013-05-24 07:45:00,55.2,51.0,30.28,East,91,3.0,6.0,84,0.00,,,0.00,weatherlink.com 1.10,2013-05-24 12:45:00,
2013-05-24 08:00:00,56.3,50.0,30.29,ESE,110,4.0,5.0,80,0.00,,,0.00,weatherlink.com 1.10,2013-05-24 13:00:00,
2013-05-24 08:15:00,57.0,49.0,30.29,ESE,102,4.0,6.0,75,0.00,,,0.00,weatherlink.com 1.10,2013-05-24 13:15:00,
2013-05-24 08:30:00,57.2,48.0,30.29,ESE,117,7.0,10.0,71,0.00,,,0.00,weatherlink.com 1.10,2013-05-24 13:30:00,
2013-05-24 08:45:00,57.8,48.0,30.28,ESE,110,7.0,9.0,69,0.00,,,0.00,weatherlink.com 1.10,2013-05-24 13:45:00,
2013-05-24 09:00:00,58.1,48.0,30.29,ESE,109,6.0,9.0,69,0.00,,,0.00,weatherlink.com 1.10,2013-05-24 14:00:00,
2013-05-24 09:15:00,58.7,48.0,30.29,East,83,6.0,8.0,67,0.00,,,0.00,weatherlink.com 1.10,2013-05-24 14:15:00,
2013-05-24 09:30:00,60.2,50.0,30.29,East,96,7.0,11.0,68,0.00,,,0.00,weatherlink.com 1.10,2013-05-24 14:30:00,
2013-05-24 09:46:00,61.1,50.0,30.29,East,82,5.0,8.0,66,0.00,,,0.00,weatherlink.com 1.10,2013-05-24 14:46:00,
2013-05-24 10:01:00,61.1,47.0,30.30,ESE,107,6.0,10.0,61,0.00,,,0.00,weatherlink.com 1.10,2013-05-24 15:01:00,
2013-05-24 10:16:00,61.6,47.0,30.31,ESE,120,6.0,8.0,60,0.00,,,0.00,weatherlink.com 1.10,2013-05-24 15:16:00,
2013-05-24 10:31:00,62.5,49.0,30.30,ENE,70,7.0,9.0,62,0.00,,,0.00,weatherlink.com 1.10,2013-05-24 15:31:00,
2013-05-24 10:46:00,64.5,50.0,30.30,East,100,4.0,6.0,60,0.00,,,0.00,weatherlink.com 1.10,2013-05-24 15:46:00,
2013-05-24 11:01:00,64.3,49.0,30.30,ESE,107,4.0,6.0,57,0.00,,,0.00,weatherlink.com 1.10,2013-05-24 16:01:00,
2013-05-24 11:16:00,64.9,49.0,30.30,ESE,114,4.0,7.0,56,0.00,,,0.00,weatherlink.com 1.10,2013-05-24 16:16:00,
2013-05-24 11:31:00,66.0,49.0,30.30,East,95,4.0,7.0,55,0.00,,,0.00,weatherlink.com 1.10,2013-05-24 16:31:00,
2013-05-24 11:46:00,66.4,49.0,30.29,ESE,110,3.0,5.0,54,0.00,,,0.00,weatherlink.com 1.10,2013-05-24 16:46:00,
2013-05-24 12:01:00,67.2,49.0,30.28,East,99,6.0,7.0,52,0.00,,,0.00,weatherlink.com 1.10,2013-05-24 17:01:00,
2013-05-24 12:16:00,67.3,51.0,30.28,East,84,6.0,6.0,56,0.00,,,0.00,weatherlink.com 1.10,2013-05-24 17:16:00,
2013-05-24 12:31:00,67.6,49.0,30.27,East,92,3.0,10.0,52,0.00,,,0.00,weatherlink.com 1.10,2013-05-24 17:31:00,
2013-05-24 12:46:00,68.7,50.0,30.27,East,95,5.0,6.0,52,0.00,,,0.00,weatherlink.com 1.10,2013-05-24 17:46:00,
2013-05-24 13:01:00,69.0,50.0,30.26,ESE,104,5.0,6.0,51,0.00,,,0.00,weatherlink.com 1.10,2013-05-24 18:01:00,
2013-05-24 13:16:00,69.8,51.0,30.26,SE,128,3.0,7.0,51,0.00,,,0.00,weatherlink.com 1.10,2013-05-24 18:16:00,
2013-05-24 13:31:00,70.2,48.0,30.25,ESE,114,3.0,6.0,46,0.00,,,0.00,weatherlink.com 1.10,2013-05-24 18:31:00,
2013-05-24 14:01:00,71.2,51.0,30.25,ENE,75,2.0,5.0,49,0.00,,,0.00,weatherlink.com 1.10,2013-05-24 19:01:00,
2013-05-24 14:16:00,72.3,50.0,30.24,ESE,107,3.0,6.0,45,0.00,,,0.00,weatherlink.com 1.10,2013-05-24 19:16:00,
2013-05-24 14:31:00,71.7,50.0,30.24,ESE,105,3.0,6.0,47,0.00,,,0.00,weatherlink.com 1.10,2013-05-24 19:31:00,
2013-05-24 14:46:00,72.6,52.0,30.24,SE,125,3.0,6.0,48,0.00,,,0.00,weatherlink.com 1.10,2013-05-24 19:46:00,
2013-05-24 15:01:00,72.7,48.0,30.23,ESE,119,3.0,7.0,41,0.00,,,0.00,weatherlink.com 1.10,2013-05-24 20:01:00,
2013-05-24 15:16:00,73.6,48.0,30.22,ESE,105,5.0,7.0,41,0.00,,,0.00,weatherlink.com 1.10,2013-05-24 20:16:00,
2013-05-24 15:31:00,73.0,47.0,30.22,East,84,4.0,6.0,40,0.00,,,0.00,weatherlink.com 1.10,2013-05-24 20:31:00,
2013-05-24 15:46:00,73.9,49.0,30.22,East,101,2.0,5.0,41,0.00,,,0.00,weatherlink.com 1.10,2013-05-24 20:46:00,
2013-05-24 16:01:00,74.1,48.0,30.22,East,100,2.0,6.0,40,0.00,,,0.00,weatherlink.com 1.10,2013-05-24 21:01:00,
2013-05-24 16:16:00,73.8,48.0,30.21,ESE,105,4.0,6.0,40,0.00,,,0.00,weatherlink.com 1.10,2013-05-24 21:16:00,
2013-05-24 16:31:00,74.9,48.0,30.21,ESE,107,2.0,3.0,39,0.00,,,0.00,weatherlink.com 1.10,2013-05-24 21:31:00,
2013-05-24 16:46:00,73.2,47.0,30.21,ESE,117,3.0,6.0,40,0.00,,,0.00,weatherlink.com 1.10,2013-05-24 21:46:00,
2013-05-24 17:01:00,73.3,47.0,30.20,ESE,118,2.0,4.0,39,0.00,,,0.00,weatherlink.com 1.10,2013-05-24 22:01:00,
2013-05-24 17:16:00,73.4,46.0,30.20,ESE,106,2.0,4.0,38,0.00,,,0.00,weatherlink.com 1.10,2013-05-24 22:16:00,
2013-05-24 17:31:00,72.9,48.0,30.19,ESE,112,2.0,5.0,41,0.00,,,0.00,weatherlink.com 1.10,2013-05-24 22:31:00,
2013-05-24 17:46:00,71.8,45.0,30.18,ESE,111,4.0,6.0,39,0.00,,,0.00,weatherlink.com 1.10,2013-05-24 22:46:00,
2013-05-24 18:01:00,71.1,45.0,30.18,ESE,115,4.0,7.0,39,0.00,,,0.00,weatherlink.com 1.10,2013-05-24 23:01:00,
2013-05-24 18:16:00,70.4,46.0,30.17,ESE,113,4.0,6.0,42,0.00,,,0.00,weatherlink.com 1.10,2013-05-24 23:16:00,
2013-05-24 18:31:00,70.1,46.0,30.17,ESE,115,1.0,5.0,42,0.00,,,0.00,weatherlink.com 1.10,2013-05-24 23:31:00,
2013-05-24 18:46:00,69.7,46.0,30.17,ESE,113,2.0,4.0,43,0.00,,,0.00,weatherlink.com 1.10,2013-05-24 23:46:00,
2013-05-24 19:01:00,69.1,48.0,30.17,ESE,113,0.0,4.0,47,0.00,,,0.00,weatherlink.com 1.10,2013-05-25 00:01:00,
2013-05-24 19:16:00,67.9,48.0,30.18,ESE,106,1.0,4.0,50,0.00,,,0.00,weatherlink.com 1.10,2013-05-25 00:16:00,
2013-05-24 19:31:00,66.8,48.0,30.17,ESE,102,1.0,2.0,51,0.00,,,0.00,weatherlink.com 1.10,2013-05-25 00:31:00,
2013-05-24 19:46:00,65.9,48.0,30.18,ESE,108,1.0,2.0,52,0.00,,,0.00,weatherlink.com 1.10,2013-05-25 00:46:00,
2013-05-24 20:01:00,64.4,48.0,30.18,East,98,2.0,3.0,55,0.00,,,0.00,weatherlink.com 1.10,2013-05-25 01:01:00,
2013-05-24 20:16:00,63.7,48.0,30.18,ESE,105,1.0,3.0,56,0.00,,,0.00,weatherlink.com 1.10,2013-05-25 01:16:00,
2013-05-24 20:32:00,62.5,48.0,30.18,ESE,108,1.0,2.0,59,0.00,,,0.00,weatherlink.com 1.10,2013-05-25 01:32:00,
2013-05-24 20:47:00,61.5,48.0,30.18,East,101,3.0,3.0,61,0.00,,,0.00,weatherlink.com 1.10,2013-05-25 01:47:00,
2013-05-24 21:02:00,61.0,48.0,30.18,ESE,108,1.0,3.0,62,0.00,,,0.00,weatherlink.com 1.10,2013-05-25 02:02:00,
2013-05-24 21:17:00,60.6,48.0,30.18,ESE,112,2.0,2.0,63,0.00,,,0.00,weatherlink.com 1.10,2013-05-25 02:17:00,
2013-05-24 21:32:00,60.1,48.0,30.19,ESE,108,1.0,2.0,64,0.00,,,0.00,weatherlink.com 1.10,2013-05-25 02:32:00,
2013-05-24 21:47:00,59.7,47.0,30.20,ESE,116,2.0,3.0,64,0.00,,,0.00,weatherlink.com 1.10,2013-05-25 02:47:00,
2013-05-24 22:02:00,59.8,47.0,30.20,ESE,108,2.0,3.0,62,0.00,,,0.00,weatherlink.com 1.10,2013-05-25 03:02:00,
2013-05-24 22:17:00,59.6,46.0,30.20,ESE,121,2.0,3.0,61,0.00,,,0.00,weatherlink.com 1.10,2013-05-25 03:17:00,
2013-05-24 22:32:00,59.5,46.0,30.21,ESE,117,4.0,4.0,61,0.00,,,0.00,weatherlink.com 1.10,2013-05-25 03:32:00,
2013-05-24 22:47:00,59.6,46.0,30.21,ESE,105,2.0,3.0,61,0.00,,,0.00,weatherlink.com 1.10,2013-05-25 03:47:00,
2013-05-24 23:02:00,59.3,46.0,30.21,ESE,117,2.0,4.0,61,0.00,,,0.00,weatherlink.com 1.10,2013-05-25 04:02:00,
2013-05-24 23:17:00,59.1,46.0,30.21,SE,129,1.0,4.0,62,0.00,,,0.00,weatherlink.com 1.10,2013-05-25 04:17:00,
2013-05-24 23:32:00,58.8,46.0,30.21,ESE,117,3.0,3.0,63,0.00,,,0.00,weatherlink.com 1.10,2013-05-25 04:32:00,
2013-05-24 23:47:00,58.5,46.0,30.21,SE,124,3.0,3.0,63,0.00,,,0.00,weatherlink.com 1.10,2013-05-25 04:47:00,